sensor_id;sensor_type;location;lat;lon;timestamp;P1;durP1;ratioP1;P2;durP2;ratioP2
9934;SDS011;5006;41.828;23.478;2022-12-07T07:20:43;11.50;;;7.53;;
9934;SDS011;5006;41.828;23.478;2022-12-07T07:21:49;9.52;;;7.05;;
9934;SDS011;5006;41.828;23.478;2022-12-07T07:22:55;12.27;;;7.38;;
9934;SDS011;5006;41.828;23.478;2022-12-07T07:24:00;11.27;;;6.82;;
9934;SDS011;5006;41.828;23.478;2022-12-07T07:25:05;11.45;;;7.30;;
9934;SDS011;5006;41.828;23.478;2022-12-07T07:26:10;10.38;;;7.20;;
9934;SDS011;5006;41.828;23.478;2022-12-07T07:27:16;18.15;;;7.28;;
9934;SDS011;5006;41.828;23.478;2022-12-07T07:28:21;14.48;;;8.80;;
9934;SDS011;5006;41.828;23.478;2022-12-07T07:29:26;27.75;;;20.45;;
9934;SDS011;5006;41.828;23.478;2022-12-07T07:30:32;30.05;;;22.63;;
9934;SDS011;5006;41.828;23.478;2022-12-07T07:31:37;18.92;;;15.55;;
9934;SDS011;5006;41.828;23.478;2022-12-07T07:32:43;24.23;;;17.45;;
9934;SDS011;5006;41.828;23.478;2022-12-07T07:33:47;18.95;;;13.05;;
9934;SDS011;5006;41.828;23.478;2022-12-07T07:34:53;17.35;;;11.35;;
9934;SDS011;5006;41.828;23.478;2022-12-07T07:35:59;20.75;;;14.73;;
9934;SDS011;5006;41.828;23.478;2022-12-07T07:37:05;30.17;;;21.38;;
9934;SDS011;5006;41.828;23.478;2022-12-07T07:38:10;26.83;;;19.33;;
9934;SDS011;5006;41.828;23.478;2022-12-07T07:39:16;23.40;;;17.38;;
9934;SDS011;5006;41.828;23.478;2022-12-07T07:40:21;23.75;;;16.90;;
9934;SDS011;5006;41.828;23.478;2022-12-07T07:41:27;19.73;;;15.57;;
9934;SDS011;5006;41.828;23.478;2022-12-07T07:42:33;20.83;;;17.58;;
9934;SDS011;5006;41.828;23.478;2022-12-07T07:43:39;29.38;;;20.17;;
9934;SDS011;5006;41.828;23.478;2022-12-07T07:44:45;42.50;;;31.33;;
9934;SDS011;5006;41.828;23.478;2022-12-07T07:45:51;55.30;;;40.03;;
9934;SDS011;5006;41.828;23.478;2022-12-07T07:46:55;46.72;;;36.17;;
9934;SDS011;5006;41.828;23.478;2022-12-07T07:48:01;38.95;;;28.83;;
9934;SDS011;5006;41.828;23.478;2022-12-07T07:49:08;40.58;;;31.60;;
9934;SDS011;5006;41.828;23.478;2022-12-07T07:50:14;44.28;;;37.25;;
9934;SDS011;5006;41.828;23.478;2022-12-07T07:51:21;54.13;;;43.72;;
9934;SDS011;5006;41.828;23.478;2022-12-07T07:52:27;50.58;;;43.85;;
9934;SDS011;5006;41.828;23.478;2022-12-07T07:53:33;57.10;;;48.25;;
9934;SDS011;5006;41.828;23.478;2022-12-07T07:54:39;65.20;;;49.63;;
9934;SDS011;5006;41.828;23.478;2022-12-07T07:55:50;64.93;;;55.38;;
9934;SDS011;5006;41.828;23.478;2022-12-07T07:56:55;71.38;;;60.08;;
9934;SDS011;5006;41.828;23.478;2022-12-07T07:58:01;84.50;;;74.30;;
9934;SDS011;5006;41.828;23.478;2022-12-07T07:59:07;78.55;;;64.38;;
9934;SDS011;5006;41.828;23.478;2022-12-07T08:00:12;81.93;;;64.15;;
9934;SDS011;5006;41.828;23.478;2022-12-07T08:01:19;85.18;;;68.53;;
9934;SDS011;5006;41.828;23.478;2022-12-07T08:02:24;90.05;;;73.97;;
9934;SDS011;5006;41.828;23.478;2022-12-07T08:03:30;101.35;;;84.82;;
9934;SDS011;5006;41.828;23.478;2022-12-07T08:04:34;99.90;;;86.32;;
9934;SDS011;5006;41.828;23.478;2022-12-07T08:05:41;107.57;;;88.22;;
9934;SDS011;5006;41.828;23.478;2022-12-07T08:06:48;107.28;;;86.32;;
9934;SDS011;5006;41.828;23.478;2022-12-07T08:07:54;95.95;;;81.38;;
9934;SDS011;5006;41.828;23.478;2022-12-07T08:08:59;105.85;;;86.85;;
9934;SDS011;5006;41.828;23.478;2022-12-07T08:10:05;99.40;;;83.78;;
9934;SDS011;5006;41.828;23.478;2022-12-07T08:11:11;96.68;;;82.05;;
9934;SDS011;5006;41.828;23.478;2022-12-07T08:12:17;85.63;;;70.45;;
9934;SDS011;5006;41.828;23.478;2022-12-07T08:13:22;75.63;;;63.03;;
9934;SDS011;5006;41.828;23.478;2022-12-07T08:14:28;73.53;;;58.92;;
9934;SDS011;5006;41.828;23.478;2022-12-07T08:15:35;63.92;;;53.97;;
9934;SDS011;5006;41.828;23.478;2022-12-07T08:16:41;55.45;;;48.25;;
9934;SDS011;5006;41.828;23.478;2022-12-07T08:17:47;46.70;;;38.05;;
9934;SDS011;5006;41.828;23.478;2022-12-07T08:18:53;44.70;;;36.20;;
9934;SDS011;5006;41.828;23.478;2022-12-07T08:19:58;34.30;;;27.65;;
9934;SDS011;5006;41.828;23.478;2022-12-07T08:21:04;31.73;;;26.05;;
9934;SDS011;5006;41.828;23.478;2022-12-07T08:22:12;43.85;;;34.25;;
9934;SDS011;5006;41.828;23.478;2022-12-07T08:23:18;43.15;;;30.10;;
9934;SDS011;5006;41.828;23.478;2022-12-07T08:24:24;29.85;;;22.48;;
9934;SDS011;5006;41.828;23.478;2022-12-07T08:25:29;40.60;;;30.58;;
9934;SDS011;5006;41.828;23.478;2022-12-07T08:26:35;32.08;;;28.45;;
9934;SDS011;5006;41.828;23.478;2022-12-07T08:27:41;35.83;;;28.15;;
9934;SDS011;5006;41.828;23.478;2022-12-07T08:28:46;28.50;;;23.88;;
9934;SDS011;5006;41.828;23.478;2022-12-07T08:29:51;25.98;;;21.75;;
9934;SDS011;5006;41.828;23.478;2022-12-07T08:30:58;30.50;;;21.63;;
9934;SDS011;5006;41.828;23.478;2022-12-07T08:32:05;25.13;;;19.92;;
9934;SDS011;5006;41.828;23.478;2022-12-07T08:33:11;23.17;;;19.15;;
9934;SDS011;5006;41.828;23.478;2022-12-07T08:34:16;29.42;;;18.40;;
9934;SDS011;5006;41.828;23.478;2022-12-07T08:35:23;26.88;;;17.50;;
9934;SDS011;5006;41.828;23.478;2022-12-07T08:36:29;19.20;;;12.82;;
9934;SDS011;5006;41.828;23.478;2022-12-07T08:37:36;16.05;;;11.68;;
9934;SDS011;5006;41.828;23.478;2022-12-07T08:38:42;14.43;;;11.70;;
9934;SDS011;5006;41.828;23.478;2022-12-07T08:39:47;15.00;;;12.27;;
9934;SDS011;5006;41.828;23.478;2022-12-07T08:40:53;15.98;;;11.65;;
9934;SDS011;5006;41.828;23.478;2022-12-07T08:42:00;13.77;;;9.50;;
9934;SDS011;5006;41.828;23.478;2022-12-07T08:43:05;14.60;;;9.60;;
9934;SDS011;5006;41.828;23.478;2022-12-07T08:44:10;20.25;;;11.57;;
9934;SDS011;5006;41.828;23.478;2022-12-07T08:45:17;14.98;;;12.35;;
9934;SDS011;5006;41.828;23.478;2022-12-07T08:46:24;17.50;;;11.98;;
9934;SDS011;5006;41.828;23.478;2022-12-07T08:47:32;19.88;;;13.45;;
9934;SDS011;5006;41.828;23.478;2022-12-07T08:48:40;14.30;;;11.32;;
9934;SDS011;5006;41.828;23.478;2022-12-07T08:49:48;16.27;;;10.82;;
9934;SDS011;5006;41.828;23.478;2022-12-07T08:50:57;11.73;;;10.30;;
9934;SDS011;5006;41.828;23.478;2022-12-07T08:52:04;14.18;;;10.70;;
9934;SDS011;5006;41.828;23.478;2022-12-07T08:53:12;14.93;;;10.93;;
9934;SDS011;5006;41.828;23.478;2022-12-07T08:54:18;12.52;;;10.88;;
9934;SDS011;5006;41.828;23.478;2022-12-07T08:55:25;14.30;;;11.00;;
9934;SDS011;5006;41.828;23.478;2022-12-07T08:56:31;15.07;;;9.82;;
9934;SDS011;5006;41.828;23.478;2022-12-07T08:57:37;19.23;;;11.20;;
9934;SDS011;5006;41.828;23.478;2022-12-07T08:58:44;15.57;;;11.10;;
9934;SDS011;5006;41.828;23.478;2022-12-07T08:59:50;16.27;;;13.60;;
9934;SDS011;5006;41.828;23.478;2022-12-07T09:00:55;22.02;;;15.50;;
9934;SDS011;5006;41.828;23.478;2022-12-07T09:02:01;14.65;;;11.73;;
9934;SDS011;5006;41.828;23.478;2022-12-07T09:03:06;18.27;;;13.07;;
9934;SDS011;5006;41.828;23.478;2022-12-07T09:04:11;18.55;;;13.65;;
9934;SDS011;5006;41.828;23.478;2022-12-07T09:05:17;18.52;;;11.93;;
9934;SDS011;5006;41.828;23.478;2022-12-07T09:06:22;24.15;;;16.67;;
9934;SDS011;5006;41.828;23.478;2022-12-07T09:07:28;19.45;;;13.20;;
9934;SDS011;5006;41.828;23.478;2022-12-07T09:08:38;18.38;;;12.57;;
9934;SDS011;5006;41.828;23.478;2022-12-07T09:09:46;18.17;;;12.50;;
9934;SDS011;5006;41.828;23.478;2022-12-07T09:10:52;17.67;;;12.50;;
9934;SDS011;5006;41.828;23.478;2022-12-07T09:11:58;14.30;;;11.70;;
9934;SDS011;5006;41.828;23.478;2022-12-07T09:13:04;18.15;;;12.20;;
9934;SDS011;5006;41.828;23.478;2022-12-07T09:14:09;18.60;;;12.48;;
9934;SDS011;5006;41.828;23.478;2022-12-07T09:15:16;18.02;;;12.23;;
9934;SDS011;5006;41.828;23.478;2022-12-07T09:16:21;15.63;;;12.13;;
9934;SDS011;5006;41.828;23.478;2022-12-07T09:17:26;20.40;;;11.40;;
9934;SDS011;5006;41.828;23.478;2022-12-07T09:18:31;18.33;;;10.63;;
9934;SDS011;5006;41.828;23.478;2022-12-07T09:19:37;17.77;;;10.45;;
9934;SDS011;5006;41.828;23.478;2022-12-07T09:20:45;15.05;;;11.55;;
9934;SDS011;5006;41.828;23.478;2022-12-07T09:21:52;16.88;;;11.70;;
9934;SDS011;5006;41.828;23.478;2022-12-07T09:22:57;19.85;;;12.05;;
9934;SDS011;5006;41.828;23.478;2022-12-07T09:24:04;16.35;;;11.90;;
9934;SDS011;5006;41.828;23.478;2022-12-07T09:25:11;11.48;;;8.07;;
9934;SDS011;5006;41.828;23.478;2022-12-07T09:26:17;10.35;;;6.93;;
9934;SDS011;5006;41.828;23.478;2022-12-07T09:27:23;10.00;;;7.50;;
9934;SDS011;5006;41.828;23.478;2022-12-07T09:28:28;10.90;;;7.47;;
9934;SDS011;5006;41.828;23.478;2022-12-07T09:29:35;10.88;;;7.43;;
9934;SDS011;5006;41.828;23.478;2022-12-07T09:30:44;10.25;;;7.90;;
9934;SDS011;5006;41.828;23.478;2022-12-07T09:31:51;11.13;;;9.38;;
9934;SDS011;5006;41.828;23.478;2022-12-07T09:32:57;15.88;;;11.65;;
9934;SDS011;5006;41.828;23.478;2022-12-07T09:34:03;15.32;;;11.75;;
9934;SDS011;5006;41.828;23.478;2022-12-07T09:35:09;15.50;;;10.77;;
9934;SDS011;5006;41.828;23.478;2022-12-07T09:36:15;20.25;;;11.70;;
9934;SDS011;5006;41.828;23.478;2022-12-07T09:37:20;16.60;;;11.02;;
9934;SDS011;5006;41.828;23.478;2022-12-07T09:38:27;17.80;;;11.45;;
9934;SDS011;5006;41.828;23.478;2022-12-07T09:39:34;18.05;;;11.23;;
9934;SDS011;5006;41.828;23.478;2022-12-07T09:40:43;18.95;;;11.80;;
9934;SDS011;5006;41.828;23.478;2022-12-07T09:41:49;14.35;;;11.85;;
9934;SDS011;5006;41.828;23.478;2022-12-07T09:42:55;17.92;;;12.10;;
9934;SDS011;5006;41.828;23.478;2022-12-07T09:44:03;18.60;;;11.27;;
9934;SDS011;5006;41.828;23.478;2022-12-07T09:45:12;15.43;;;10.77;;
9934;SDS011;5006;41.828;23.478;2022-12-07T09:46:21;18.50;;;10.27;;
9934;SDS011;5006;41.828;23.478;2022-12-07T09:47:26;17.80;;;9.60;;
9934;SDS011;5006;41.828;23.478;2022-12-07T09:48:34;18.58;;;10.60;;
9934;SDS011;5006;41.828;23.478;2022-12-07T09:49:43;23.60;;;19.63;;
9934;SDS011;5006;41.828;23.478;2022-12-07T09:50:49;29.30;;;21.15;;
9934;SDS011;5006;41.828;23.478;2022-12-07T09:52:00;37.63;;;28.42;;
9934;SDS011;5006;41.828;23.478;2022-12-07T09:53:08;37.05;;;26.85;;
9934;SDS011;5006;41.828;23.478;2022-12-07T09:54:18;32.45;;;22.42;;
9934;SDS011;5006;41.828;23.478;2022-12-07T09:55:28;34.45;;;27.40;;
9934;SDS011;5006;41.828;23.478;2022-12-07T09:56:34;33.40;;;26.02;;
9934;SDS011;5006;41.828;23.478;2022-12-07T09:57:40;37.05;;;28.40;;
9934;SDS011;5006;41.828;23.478;2022-12-07T09:58:47;45.80;;;36.33;;
9934;SDS011;5006;41.828;23.478;2022-12-07T09:59:53;46.13;;;35.60;;
9934;SDS011;5006;41.828;23.478;2022-12-07T10:01:00;45.78;;;35.72;;
9934;SDS011;5006;41.828;23.478;2022-12-07T10:02:22;41.83;;;30.42;;
9934;SDS011;5006;41.828;23.478;2022-12-07T10:03:30;35.33;;;30.00;;
9934;SDS011;5006;41.828;23.478;2022-12-07T10:04:37;43.05;;;31.77;;
9934;SDS011;5006;41.828;23.478;2022-12-07T10:05:44;31.27;;;25.75;;
9934;SDS011;5006;41.828;23.478;2022-12-07T10:06:53;24.98;;;20.52;;
9934;SDS011;5006;41.828;23.478;2022-12-07T10:07:58;21.13;;;17.48;;
9934;SDS011;5006;41.828;23.478;2022-12-07T10:09:08;27.98;;;19.50;;
9934;SDS011;5006;41.828;23.478;2022-12-07T10:10:15;23.45;;;16.90;;
9934;SDS011;5006;41.828;23.478;2022-12-07T10:11:27;33.13;;;24.05;;
9934;SDS011;5006;41.828;23.478;2022-12-07T10:12:39;30.15;;;24.05;;
9934;SDS011;5006;41.828;23.478;2022-12-07T10:14:09;36.58;;;25.38;;
9934;SDS011;5006;41.828;23.478;2022-12-07T10:15:18;26.92;;;19.55;;
9934;SDS011;5006;41.828;23.478;2022-12-07T10:16:32;21.63;;;17.67;;
9934;SDS011;5006;41.828;23.478;2022-12-07T10:17:47;22.85;;;16.77;;
9934;SDS011;5006;41.828;23.478;2022-12-07T10:18:54;17.67;;;13.65;;
9934;SDS011;5006;41.828;23.478;2022-12-07T10:20:20;19.20;;;12.77;;
9934;SDS011;5006;41.828;23.478;2022-12-07T10:21:28;17.80;;;9.55;;
9934;SDS011;5006;41.828;23.478;2022-12-07T10:22:34;15.52;;;9.90;;
9934;SDS011;5006;41.828;23.478;2022-12-07T10:23:39;19.20;;;11.63;;
9934;SDS011;5006;41.828;23.478;2022-12-07T10:24:46;16.45;;;9.38;;
9934;SDS011;5006;41.828;23.478;2022-12-07T10:25:52;14.48;;;8.38;;
9934;SDS011;5006;41.828;23.478;2022-12-07T10:27:00;11.90;;;7.55;;
9934;SDS011;5006;41.828;23.478;2022-12-07T10:28:12;10.85;;;7.95;;
9934;SDS011;5006;41.828;23.478;2022-12-07T10:29:20;15.02;;;8.60;;
9934;SDS011;5006;41.828;23.478;2022-12-07T10:30:27;14.20;;;9.07;;
9934;SDS011;5006;41.828;23.478;2022-12-07T10:31:35;11.73;;;8.65;;
9934;SDS011;5006;41.828;23.478;2022-12-07T10:32:44;15.43;;;9.48;;
9934;SDS011;5006;41.828;23.478;2022-12-07T10:33:50;14.05;;;9.20;;
9934;SDS011;5006;41.828;23.478;2022-12-07T10:35:18;15.30;;;10.10;;
9934;SDS011;5006;41.828;23.478;2022-12-07T10:36:27;11.38;;;6.43;;
9934;SDS011;5006;41.828;23.478;2022-12-07T10:37:40;9.10;;;5.65;;
9934;SDS011;5006;41.828;23.478;2022-12-07T10:38:47;13.10;;;6.97;;
9934;SDS011;5006;41.828;23.478;2022-12-07T10:39:54;12.35;;;7.05;;
9934;SDS011;5006;41.828;23.478;2022-12-07T10:41:05;8.60;;;7.00;;
9934;SDS011;5006;41.828;23.478;2022-12-07T10:42:19;10.95;;;6.70;;
9934;SDS011;5006;41.828;23.478;2022-12-07T10:43:25;11.85;;;6.85;;
9934;SDS011;5006;41.828;23.478;2022-12-07T10:44:30;11.02;;;6.72;;
9934;SDS011;5006;41.828;23.478;2022-12-07T10:45:39;10.65;;;6.70;;
9934;SDS011;5006;41.828;23.478;2022-12-07T10:47:18;9.35;;;7.47;;
9934;SDS011;5006;41.828;23.478;2022-12-07T10:48:30;11.43;;;7.22;;
9934;SDS011;5006;41.828;23.478;2022-12-07T10:51:34;15.05;;;7.45;;
9934;SDS011;5006;41.828;23.478;2022-12-07T10:52:52;9.80;;;6.93;;
9934;SDS011;5006;41.828;23.478;2022-12-07T10:54:21;13.50;;;7.50;;
9934;SDS011;5006;41.828;23.478;2022-12-07T10:55:40;11.88;;;8.10;;
9934;SDS011;5006;41.828;23.478;2022-12-07T10:56:58;12.40;;;7.30;;
9934;SDS011;5006;41.828;23.478;2022-12-07T10:58:21;13.65;;;8.02;;
9934;SDS011;5006;41.828;23.478;2022-12-07T11:01:09;19.58;;;9.30;;
9934;SDS011;5006;41.828;23.478;2022-12-07T11:02:24;14.35;;;9.15;;
9934;SDS011;5006;41.828;23.478;2022-12-07T11:03:41;11.23;;;7.55;;
9934;SDS011;5006;41.828;23.478;2022-12-07T11:05:06;13.82;;;8.13;;
9934;SDS011;5006;41.828;23.478;2022-12-07T11:06:25;11.05;;;7.07;;
9934;SDS011;5006;41.828;23.478;2022-12-07T11:07:39;8.27;;;6.47;;
9934;SDS011;5006;41.828;23.478;2022-12-07T11:08:56;9.75;;;6.95;;
9934;SDS011;5006;41.828;23.478;2022-12-07T11:10:11;12.73;;;7.20;;
9934;SDS011;5006;41.828;23.478;2022-12-07T11:11:21;12.48;;;9.10;;
9934;SDS011;5006;41.828;23.478;2022-12-07T11:12:40;15.52;;;9.63;;
9934;SDS011;5006;41.828;23.478;2022-12-07T11:14:01;13.35;;;7.78;;
9934;SDS011;5006;41.828;23.478;2022-12-07T11:15:17;10.90;;;6.93;;
9934;SDS011;5006;41.828;23.478;2022-12-07T11:16:29;12.05;;;7.93;;
9934;SDS011;5006;41.828;23.478;2022-12-07T11:17:45;9.93;;;7.05;;
9934;SDS011;5006;41.828;23.478;2022-12-07T11:19:06;12.90;;;7.10;;
9934;SDS011;5006;41.828;23.478;2022-12-07T11:20:34;9.75;;;7.18;;
9934;SDS011;5006;41.828;23.478;2022-12-07T11:21:48;11.68;;;7.10;;
9934;SDS011;5006;41.828;23.478;2022-12-07T11:23:03;10.55;;;7.63;;
9934;SDS011;5006;41.828;23.478;2022-12-07T11:24:19;11.55;;;7.15;;
9934;SDS011;5006;41.828;23.478;2022-12-07T11:25:31;10.30;;;6.97;;
9934;SDS011;5006;41.828;23.478;2022-12-07T11:26:47;10.55;;;6.72;;
9934;SDS011;5006;41.828;23.478;2022-12-07T11:28:10;8.30;;;5.55;;
9934;SDS011;5006;41.828;23.478;2022-12-07T11:29:40;9.40;;;5.70;;
9934;SDS011;5006;41.828;23.478;2022-12-07T11:31:05;11.57;;;6.30;;
9934;SDS011;5006;41.828;23.478;2022-12-07T11:32:21;9.27;;;6.00;;
9934;SDS011;5006;41.828;23.478;2022-12-07T11:33:36;10.13;;;6.53;;
9934;SDS011;5006;41.828;23.478;2022-12-07T11:34:49;9.00;;;7.32;;
9934;SDS011;5006;41.828;23.478;2022-12-07T11:36:06;14.23;;;7.97;;
9934;SDS011;5006;41.828;23.478;2022-12-07T11:37:23;13.63;;;7.55;;
9934;SDS011;5006;41.828;23.478;2022-12-07T11:38:36;10.95;;;7.07;;
9934;SDS011;5006;41.828;23.478;2022-12-07T11:39:47;9.75;;;6.22;;
9934;SDS011;5006;41.828;23.478;2022-12-07T11:40:58;10.63;;;6.72;;
9934;SDS011;5006;41.828;23.478;2022-12-07T11:42:19;10.90;;;6.43;;
9934;SDS011;5006;41.828;23.478;2022-12-07T11:43:28;8.48;;;6.90;;
9934;SDS011;5006;41.828;23.478;2022-12-07T11:44:40;9.57;;;6.90;;
9934;SDS011;5006;41.828;23.478;2022-12-07T11:45:56;7.97;;;6.68;;
9934;SDS011;5006;41.828;23.478;2022-12-07T11:47:07;9.55;;;7.13;;
9934;SDS011;5006;41.828;23.478;2022-12-07T11:48:17;10.02;;;7.47;;
9934;SDS011;5006;41.828;23.478;2022-12-07T11:49:32;17.10;;;11.60;;
9934;SDS011;5006;41.828;23.478;2022-12-07T11:50:47;14.82;;;10.40;;
9934;SDS011;5006;41.828;23.478;2022-12-07T11:51:57;16.15;;;11.43;;
9934;SDS011;5006;41.828;23.478;2022-12-07T11:53:10;18.70;;;11.52;;
9934;SDS011;5006;41.828;23.478;2022-12-07T11:54:21;12.15;;;10.50;;
9934;SDS011;5006;41.828;23.478;2022-12-07T11:55:35;13.98;;;10.80;;
9934;SDS011;5006;41.828;23.478;2022-12-07T11:56:49;18.20;;;11.38;;
9934;SDS011;5006;41.828;23.478;2022-12-07T11:57:58;13.48;;;11.65;;
9934;SDS011;5006;41.828;23.478;2022-12-07T11:59:10;16.23;;;11.10;;
9934;SDS011;5006;41.828;23.478;2022-12-07T12:00:24;16.92;;;9.52;;
9934;SDS011;5006;41.828;23.478;2022-12-07T12:01:33;14.15;;;8.85;;
9934;SDS011;5006;41.828;23.478;2022-12-07T12:02:46;9.02;;;6.78;;
9934;SDS011;5006;41.828;23.478;2022-12-07T12:03:58;9.85;;;7.75;;
9934;SDS011;5006;41.828;23.478;2022-12-07T12:05:16;12.38;;;7.47;;
9934;SDS011;5006;41.828;23.478;2022-12-07T12:06:24;8.93;;;6.95;;
9934;SDS011;5006;41.828;23.478;2022-12-07T12:07:29;10.55;;;6.72;;
9934;SDS011;5006;41.828;23.478;2022-12-07T12:08:38;9.30;;;6.40;;
9934;SDS011;5006;41.828;23.478;2022-12-07T12:09:49;10.63;;;7.22;;
9934;SDS011;5006;41.828;23.478;2022-12-07T12:11:00;8.77;;;6.40;;
9934;SDS011;5006;41.828;23.478;2022-12-07T12:12:17;9.85;;;6.90;;
9934;SDS011;5006;41.828;23.478;2022-12-07T12:15:23;10.00;;;7.03;;
9934;SDS011;5006;41.828;23.478;2022-12-07T12:16:52;11.55;;;7.07;;
9934;SDS011;5006;41.828;23.478;2022-12-07T12:18:22;13.05;;;8.18;;
9934;SDS011;5006;41.828;23.478;2022-12-07T12:19:42;12.20;;;8.50;;
9934;SDS011;5006;41.828;23.478;2022-12-07T12:21:03;10.65;;;7.57;;
9934;SDS011;5006;41.828;23.478;2022-12-07T12:22:12;12.93;;;8.35;;
9934;SDS011;5006;41.828;23.478;2022-12-07T12:23:21;11.98;;;7.60;;
9934;SDS011;5006;41.828;23.478;2022-12-07T12:24:29;10.40;;;8.75;;
9934;SDS011;5006;41.828;23.478;2022-12-07T12:25:41;16.55;;;10.40;;
9934;SDS011;5006;41.828;23.478;2022-12-07T12:26:49;13.02;;;10.70;;
9934;SDS011;5006;41.828;23.478;2022-12-07T12:27:58;17.70;;;12.90;;
9934;SDS011;5006;41.828;23.478;2022-12-07T12:29:05;16.60;;;12.57;;
9934;SDS011;5006;41.828;23.478;2022-12-07T12:30:33;15.38;;;13.13;;
9934;SDS011;5006;41.828;23.478;2022-12-07T12:31:41;15.32;;;11.25;;
9934;SDS011;5006;41.828;23.478;2022-12-07T12:32:46;17.10;;;11.30;;
9934;SDS011;5006;41.828;23.478;2022-12-07T12:33:54;16.30;;;10.60;;
9934;SDS011;5006;41.828;23.478;2022-12-07T12:35:02;15.88;;;10.30;;
9934;SDS011;5006;41.828;23.478;2022-12-07T12:36:24;15.93;;;9.85;;
9934;SDS011;5006;41.828;23.478;2022-12-07T12:37:47;12.60;;;9.93;;
9934;SDS011;5006;41.828;23.478;2022-12-07T12:39:08;15.85;;;10.30;;
9934;SDS011;5006;41.828;23.478;2022-12-07T12:41:51;13.10;;;9.27;;
9934;SDS011;5006;41.828;23.478;2022-12-07T12:46:38;17.73;;;9.77;;
9934;SDS011;5006;41.828;23.478;2022-12-07T12:47:52;13.57;;;9.45;;
9934;SDS011;5006;41.828;23.478;2022-12-07T12:49:14;15.27;;;8.85;;
9934;SDS011;5006;41.828;23.478;2022-12-07T12:50:37;13.48;;;8.38;;
9934;SDS011;5006;41.828;23.478;2022-12-07T12:51:44;10.90;;;8.02;;
9934;SDS011;5006;41.828;23.478;2022-12-07T12:52:55;13.60;;;8.10;;
9934;SDS011;5006;41.828;23.478;2022-12-07T12:54:03;11.57;;;7.95;;
9934;SDS011;5006;41.828;23.478;2022-12-07T12:55:12;10.90;;;8.15;;
9934;SDS011;5006;41.828;23.478;2022-12-07T12:56:27;10.82;;;9.20;;
9934;SDS011;5006;41.828;23.478;2022-12-07T12:57:45;8.63;;;7.68;;
9934;SDS011;5006;41.828;23.478;2022-12-07T12:58:50;12.60;;;9.20;;
9934;SDS011;5006;41.828;23.478;2022-12-07T13:00:30;13.00;;;8.88;;
9934;SDS011;5006;41.828;23.478;2022-12-07T13:01:43;13.48;;;9.30;;
9934;SDS011;5006;41.828;23.478;2022-12-07T13:02:50;14.18;;;9.50;;
9934;SDS011;5006;41.828;23.478;2022-12-07T13:03:58;11.95;;;9.63;;
9934;SDS011;5006;41.828;23.478;2022-12-07T13:05:03;13.57;;;9.20;;
9934;SDS011;5006;41.828;23.478;2022-12-07T13:06:32;11.57;;;9.50;;
9934;SDS011;5006;41.828;23.478;2022-12-07T13:09:15;15.68;;;11.52;;
9934;SDS011;5006;41.828;23.478;2022-12-07T13:10:29;18.00;;;13.20;;
9934;SDS011;5006;41.828;23.478;2022-12-07T13:11:42;16.85;;;11.57;;
9934;SDS011;5006;41.828;23.478;2022-12-07T13:12:56;14.00;;;10.48;;
9934;SDS011;5006;41.828;23.478;2022-12-07T13:17:59;11.98;;;8.48;;
9934;SDS011;5006;41.828;23.478;2022-12-07T13:22:48;13.93;;;8.00;;
9934;SDS011;5006;41.828;23.478;2022-12-07T13:23:56;10.45;;;8.20;;
9934;SDS011;5006;41.828;23.478;2022-12-07T13:25:05;10.25;;;7.57;;
9934;SDS011;5006;41.828;23.478;2022-12-07T13:26:16;9.82;;;7.32;;
9934;SDS011;5006;41.828;23.478;2022-12-07T13:27:23;8.77;;;6.78;;
9934;SDS011;5006;41.828;23.478;2022-12-07T13:28:32;9.07;;;7.38;;
9934;SDS011;5006;41.828;23.478;2022-12-07T13:29:43;10.70;;;7.40;;
9934;SDS011;5006;41.828;23.478;2022-12-07T13:31:00;10.98;;;7.47;;
9934;SDS011;5006;41.828;23.478;2022-12-07T13:32:18;10.00;;;7.55;;
9934;SDS011;5006;41.828;23.478;2022-12-07T13:33:30;10.40;;;8.18;;
9934;SDS011;5006;41.828;23.478;2022-12-07T13:34:40;8.98;;;7.30;;
9934;SDS011;5006;41.828;23.478;2022-12-07T13:35:47;9.70;;;7.78;;
9934;SDS011;5006;41.828;23.478;2022-12-07T13:36:56;10.18;;;7.82;;
9934;SDS011;5006;41.828;23.478;2022-12-07T13:38:04;10.15;;;8.02;;
9934;SDS011;5006;41.828;23.478;2022-12-07T13:39:11;11.18;;;8.20;;
9934;SDS011;5006;41.828;23.478;2022-12-07T13:40:26;16.10;;;9.02;;
9934;SDS011;5006;41.828;23.478;2022-12-07T13:41:31;11.02;;;8.60;;
9934;SDS011;5006;41.828;23.478;2022-12-07T13:42:36;12.75;;;9.13;;
9934;SDS011;5006;41.828;23.478;2022-12-07T13:43:45;16.05;;;12.95;;
9934;SDS011;5006;41.828;23.478;2022-12-07T13:44:53;20.10;;;15.48;;
9934;SDS011;5006;41.828;23.478;2022-12-07T13:45:59;24.88;;;17.65;;
9934;SDS011;5006;41.828;23.478;2022-12-07T13:47:05;23.48;;;20.02;;
9934;SDS011;5006;41.828;23.478;2022-12-07T13:48:16;25.13;;;18.70;;
9934;SDS011;5006;41.828;23.478;2022-12-07T13:49:28;19.63;;;15.15;;
9934;SDS011;5006;41.828;23.478;2022-12-07T13:50:35;24.05;;;14.90;;
9934;SDS011;5006;41.828;23.478;2022-12-07T13:51:40;21.15;;;14.00;;
9934;SDS011;5006;41.828;23.478;2022-12-07T13:52:45;21.48;;;14.52;;
9934;SDS011;5006;41.828;23.478;2022-12-07T13:53:53;23.98;;;14.43;;
9934;SDS011;5006;41.828;23.478;2022-12-07T13:55:01;17.75;;;14.10;;
9934;SDS011;5006;41.828;23.478;2022-12-07T13:56:20;21.08;;;15.02;;
9934;SDS011;5006;41.828;23.478;2022-12-07T13:57:31;20.98;;;14.50;;
9934;SDS011;5006;41.828;23.478;2022-12-07T13:58:39;21.13;;;14.90;;
9934;SDS011;5006;41.828;23.478;2022-12-07T13:59:44;25.52;;;16.15;;
9934;SDS011;5006;41.828;23.478;2022-12-07T14:00:50;22.80;;;16.10;;
9934;SDS011;5006;41.828;23.478;2022-12-07T14:01:55;21.80;;;14.93;;
9934;SDS011;5006;41.828;23.478;2022-12-07T14:03:02;23.73;;;16.35;;
9934;SDS011;5006;41.828;23.478;2022-12-07T14:05:41;18.77;;;15.30;;
9934;SDS011;5006;41.828;23.478;2022-12-07T14:06:48;18.70;;;15.25;;
9934;SDS011;5006;41.828;23.478;2022-12-07T14:07:58;19.52;;;15.35;;
9934;SDS011;5006;41.828;23.478;2022-12-07T14:09:06;19.08;;;16.75;;
9934;SDS011;5006;41.828;23.478;2022-12-07T14:10:22;19.05;;;15.35;;
9934;SDS011;5006;41.828;23.478;2022-12-07T14:11:28;20.73;;;15.50;;
9934;SDS011;5006;41.828;23.478;2022-12-07T14:12:36;18.33;;;14.15;;
9934;SDS011;5006;41.828;23.478;2022-12-07T14:13:51;18.30;;;14.45;;
9934;SDS011;5006;41.828;23.478;2022-12-07T14:15:03;16.52;;;14.00;;
9934;SDS011;5006;41.828;23.478;2022-12-07T14:16:17;20.20;;;13.43;;
9934;SDS011;5006;41.828;23.478;2022-12-07T14:17:28;17.42;;;11.73;;
9934;SDS011;5006;41.828;23.478;2022-12-07T14:18:36;12.88;;;10.30;;
9934;SDS011;5006;41.828;23.478;2022-12-07T14:19:49;14.15;;;10.55;;
9934;SDS011;5006;41.828;23.478;2022-12-07T14:21:03;15.60;;;11.63;;
9934;SDS011;5006;41.828;23.478;2022-12-07T14:22:17;15.60;;;11.60;;
9934;SDS011;5006;41.828;23.478;2022-12-07T14:23:26;13.13;;;10.88;;
9934;SDS011;5006;41.828;23.478;2022-12-07T14:24:36;14.90;;;11.45;;
9934;SDS011;5006;41.828;23.478;2022-12-07T14:25:47;13.35;;;10.07;;
9934;SDS011;5006;41.828;23.478;2022-12-07T14:26:54;13.15;;;9.65;;
9934;SDS011;5006;41.828;23.478;2022-12-07T14:28:00;11.70;;;9.27;;
9934;SDS011;5006;41.828;23.478;2022-12-07T14:29:18;13.55;;;9.45;;
9934;SDS011;5006;41.828;23.478;2022-12-07T14:30:26;12.07;;;8.80;;
9934;SDS011;5006;41.828;23.478;2022-12-07T14:31:33;10.30;;;8.30;;
9934;SDS011;5006;41.828;23.478;2022-12-07T14:32:38;12.38;;;8.73;;
9934;SDS011;5006;41.828;23.478;2022-12-07T14:33:45;10.70;;;7.63;;
9934;SDS011;5006;41.828;23.478;2022-12-07T14:34:55;12.75;;;7.97;;
9934;SDS011;5006;41.828;23.478;2022-12-07T14:36:01;10.02;;;7.60;;
9934;SDS011;5006;41.828;23.478;2022-12-07T14:37:07;11.90;;;8.15;;
9934;SDS011;5006;41.828;23.478;2022-12-07T14:38:13;12.55;;;8.13;;
9934;SDS011;5006;41.828;23.478;2022-12-07T14:39:19;13.60;;;8.75;;